Leoti, KS (67861)

7:26 PM CST on January 30, 2015 (GMT -0600)
Ladder Creek 2 | Change Station
CLOSE
Current Station
Personal Weather Station
Location: Leoti, KS
Elevation: 3287 ft
Nearby Weather Stations

Elev 3287 ft 38.58 °N, 101.39 °W | Updated 13 minutes ago

Ice Pellets
Ice Pellets
32.4 °F
Feels Like 28 °F
N
4.7
Wind Variable Wind from SSW

Today
High -- | Low -- °F
--% Chance of Precip.
Yesterday
High -- | Low -- °F
Precip. -- in
7:52 AM 6:05 PM
Waxing Gibbous, 86% visible
Pressure 30.23 in
Visibility 1.0 miles
Clouds
Windchill 28 °F
Dew Point 32 °F
Humidity 99%
Rainfall 0.07 in
Snow Depth Not available.
UV Not available.
Pollen .70 out of 12
Air Quality Not available.
Flu Activity Not available.
SPECI KGCK 310117Z 16010KT 1SM -SN BR VV003 M01/M01 A3023 RMK AO2 P0003 T10061006

More Conditions Fewer Conditions

Pressure 30.23 in
Visibility 1.0 miles
Clouds
Windchill 28 °F
Dew Point 32 °F
Humidity 99%
Rainfall 0.07 in
Snow Depth Not available.
UV Not available.
Pollen .70 out of 12
Air Quality Not available.
Flu Activity Not available.
SPECI KGCK 310117Z 16010KT 1SM -SN BR VV003 M01/M01 A3023 RMK AO2 P0003 T10061006

More Conditions Fewer Conditions

10-Day Weather Forecast

Almanac

Astronomy

Jan. 30, 2015 Rise Set
Actual Time
Civil Twilight
Nautical Twilight
Astronomical Twilight
Moon
Length of Visible Light
Length of Day
Tomorrow will be .
, % of the Moon is Illuminated

Today's Extremes

State Highs State Lows

Community

WunderPhotos

Upload Photos

1,791,957 photos uploaded!

WunderBlogs® & News

Nearby

Air Quality

  Air Quality AQ Index Pollutant
Not available.

Snow Depth

Station Depth Elevation

Earthquake Activity

City Distance Mag. Time & Date
Minimum magnitude displayed is 2.5.

Coastal Water Temperatures

Place Temperature

Nearby Weather Stations